Time;durP1;ratioP1;P1;durP2;ratioP2;P2;SDS_P1;SDS_P2;PMS_P1;PMS_P2;Temp;Humidity;BMP_temperature;BMP_pressure;BME280_temperature;BME280_humidity;BME280_pressure;Samples;Min_cycle;Max_cycle;Signal;HPM_P1;HPM_P2
2023/08/23 00:02:10;;;;;;;7.50;4.60;;;;;;;15.62;100.00;99710.80;109421;1251;60081;-73
2023/08/23 00:04:37;;;;;;;8.30;4.10;;;;;;;15.61;100.00;99717.36;109418;1251;58993;-74
2023/08/23 00:07:05;;;;;;;6.80;4.30;;;;;;;15.62;100.00;99708.66;109327;1251;73379;-73
2023/08/23 00:09:32;;;;;;;11.60;4.50;;;;;;;15.64;100.00;99707.70;109265;1251;71385;-73
2023/08/23 00:12:00;;;;;;;9.90;4.10;;;;;;;15.63;100.00;99716.60;109358;1251;72695;-74
2023/08/23 00:14:28;;;;;;;6.70;3.90;;;;;;;15.59;100.00;99718.04;109419;1251;59015;-73
2023/08/23 00:16:55;;;;;;;8.60;4.30;;;;;;;15.56;100.00;99720.27;109383;1251;60054;-73
2023/08/23 00:19:22;;;;;;;5.20;3.60;;;;;;;15.54;100.00;99717.77;109369;1251;73346;-74
2023/08/23 00:21:50;;;;;;;8.70;3.90;;;;;;;15.53;100.00;99721.48;109409;1251;70805;-73
2023/08/23 00:24:21;;;;;;;8.20;4.00;;;;;;;15.52;100.00;99727.93;109420;1251;72737;-73
2023/08/23 00:26:48;;;;;;;7.50;4.40;;;;;;;15.51;100.00;99729.76;109297;1251;61785;-73
2023/08/23 00:29:16;;;;;;;9.10;4.10;;;;;;;15.48;100.00;99737.13;109425;1251;59982;-73
2023/08/23 00:31:44;;;;;;;6.50;4.00;;;;;;;15.48;100.00;99739.24;109280;1250;74642;-73
2023/08/23 00:34:12;;;;;;;10.70;3.40;;;;;;;15.48;100.00;99739.84;109398;1251;70223;-74
2023/08/23 00:36:39;;;;;;;6.90;3.80;;;;;;;15.46;100.00;99740.59;109387;1251;72473;-73
2023/08/23 00:39:07;;;;;;;4.60;3.20;;;;;;;15.45;100.00;99741.35;109386;1251;59373;-73
2023/08/23 00:41:35;;;;;;;8.80;3.60;;;;;;;15.45;100.00;99740.85;109268;1251;60128;-74
2023/08/23 00:44:03;;;;;;;4.60;3.20;;;;;;;15.45;100.00;99741.02;109387;1251;75083;-73
2023/08/23 00:46:30;;;;;;;5.20;3.60;;;;;;;15.44;100.00;99735.05;109426;1251;70976;-73
2023/08/23 00:48:58;;;;;;;4.00;3.20;;;;;;;15.44;100.00;99725.67;109376;1251;71351;-73
2023/08/23 00:51:25;;;;;;;5.50;3.40;;;;;;;15.44;100.00;99713.66;109137;1251;347930;-73
2023/08/23 00:53:53;;;;;;;6.30;3.30;;;;;;;15.42;100.00;99709.53;109279;1251;59446;-73
2023/08/23 00:56:20;;;;;;;5.80;3.20;;;;;;;15.37;100.00;99709.41;109407;1251;75164;-74
2023/08/23 00:58:48;;;;;;;11.80;3.40;;;;;;;15.33;100.00;99711.73;109434;1251;70871;-74
2023/08/23 01:01:15;;;;;;;4.10;3.00;;;;;;;15.31;100.00;99710.46;109395;1252;71391;-73
2023/08/23 01:03:43;;;;;;;9.60;2.80;;;;;;;15.27;100.00;99714.37;109403;1251;60073;-74
2023/08/23 01:06:10;;;;;;;8.30;3.10;;;;;;;15.22;100.00;99712.14;109376;1251;60157;-73
2023/08/23 01:09:07;;;;;;;8.90;3.20;;;;;;;15.18;100.00;99703.29;109271;1251;73301;-73
2023/08/23 01:11:48;;;;;;;5.50;2.70;;;;;;;15.14;100.00;99701.23;109397;1251;70925;-73
2023/08/23 01:14:18;;;;;;;5.80;2.80;;;;;;;15.10;100.00;99701.23;109082;1251;71479;-74
2023/08/23 01:16:47;;;;;;;3.50;2.70;;;;;;;15.06;100.00;99702.48;109323;1251;60362;-73
2023/08/23 01:19:32;;;;;;;5.30;2.90;;;;;;;15.03;100.00;99706.04;109340;1251;58863;-74
2023/08/23 01:22:00;;;;;;;3.90;2.90;;;;;;;14.99;100.00;99706.75;109427;1251;74679;-73
2023/08/23 01:24:28;;;;;;;4.20;2.60;;;;;;;14.96;100.00;99700.56;109416;1251;70409;-74
2023/08/23 01:26:55;;;;;;;7.40;2.80;;;;;;;14.94;100.00;99695.54;109276;1251;72670;-74
2023/08/23 01:29:23;;;;;;;6.20;2.70;;;;;;;14.91;100.00;99703.63;109402;1251;60023;-73
2023/08/23 01:31:52;;;;;;;4.90;3.10;;;;;;;14.89;100.00;99698.77;109447;1251;60023;-74
2023/08/23 01:34:25;;;;;;;4.20;3.10;;;;;;;14.89;100.00;99715.04;109213;1251;73790;-74
2023/08/23 01:36:54;;;;;;;5.20;3.00;;;;;;;14.87;100.00;99715.81;109248;1251;69616;-73
2023/08/23 01:39:22;;;;;;;12.80;3.00;;;;;;;14.88;100.00;99718.98;109406;1251;72935;-74
2023/08/23 01:41:50;;;;;;;3.90;2.80;;;;;;;14.88;100.00;99720.73;109353;1251;59296;-74
2023/08/23 01:44:17;;;;;;;8.20;3.50;;;;;;;14.88;100.00;99720.54;109353;1251;58965;-74
2023/08/23 01:46:44;;;;;;;9.60;3.20;;;;;;;14.89;100.00;99716.25;109401;1251;73730;-73
2023/08/23 01:49:12;;;;;;;7.70;3.20;;;;;;;14.91;100.00;99709.63;109274;1251;69125;-74
2023/08/23 01:51:39;;;;;;;7.70;3.60;;;;;;;14.92;100.00;99707.12;109256;1251;71223;-74
2023/08/23 01:54:07;;;;;;;8.70;3.80;;;;;;;14.95;100.00;99709.78;109366;1251;58983;-73
2023/08/23 01:56:34;;;;;;;11.70;3.20;;;;;;;14.98;100.00;99711.03;109385;1251;59184;-74
2023/08/23 01:59:02;;;;;;;11.10;3.20;;;;;;;15.00;100.00;99711.81;109369;1251;73431;-73
2023/08/23 02:01:29;;;;;;;7.10;3.20;;;;;;;15.00;100.00;99708.13;109365;1251;70767;-74
2023/08/23 02:03:57;;;;;;;8.00;3.30;;;;;;;15.00;100.00;99715.89;109386;1251;72694;-74
2023/08/23 02:06:24;;;;;;;5.70;3.30;;;;;;;15.00;100.00;99726.48;109382;1251;59273;-74
2023/08/23 02:08:51;;;;;;;6.60;3.50;;;;;;;14.97;100.00;99729.45;109452;1251;58988;-73
2023/08/23 02:11:19;;;;;;;5.90;3.60;;;;;;;14.96;100.00;99729.84;109373;1252;74606;-74
2023/08/23 02:13:47;;;;;;;8.10;4.00;;;;;;;14.95;100.00;99731.89;109434;1251;70129;-74
2023/08/23 02:16:14;;;;;;;7.50;4.00;;;;;;;14.94;100.00;99722.00;109358;1251;71772;-74
2023/08/23 02:18:41;;;;;;;8.60;3.90;;;;;;;14.95;100.00;99723.91;109380;1251;60053;-74
2023/08/23 02:21:09;;;;;;;6.00;3.60;;;;;;;14.97;100.00;99727.72;109389;1251;60054;-73
2023/08/23 02:23:37;;;;;;;14.00;3.60;;;;;;;14.98;100.00;99718.10;109405;1251;73376;-74
2023/08/23 02:26:05;;;;;;;7.40;3.90;;;;;;;15.01;100.00;99721.83;109408;1251;70785;-74
2023/08/23 02:28:32;;;;;;;11.30;3.50;;;;;;;15.06;100.00;99726.55;109427;1251;70397;-74
2023/08/23 02:31:03;;;;;;;4.80;3.40;;;;;;;15.08;100.00;99720.09;109409;1251;59030;-74
2023/08/23 02:33:31;;;;;;;7.90;3.30;;;;;;;15.11;100.00;99716.75;109415;1251;60133;-73
2023/08/23 02:35:58;;;;;;;6.00;3.20;;;;;;;15.13;100.00;99717.52;109369;1251;74645;-73
2023/08/23 02:38:26;;;;;;;5.30;3.50;;;;;;;15.15;100.00;99724.86;109427;1251;70442;-73
2023/08/23 02:40:55;;;;;;;7.80;3.10;;;;;;;15.13;100.00;99715.92;109433;1251;71468;-73
2023/08/23 02:43:24;;;;;;;6.70;3.30;;;;;;;15.13;100.00;99707.47;109334;1251;60610;-74
2023/08/23 02:45:54;;;;;;;4.80;3.60;;;;;;;15.13;100.00;99699.51;109427;1251;59961;-73
2023/08/23 02:48:21;;;;;;;10.20;4.00;;;;;;;15.13;100.00;99697.05;109398;1251;73742;-74
2023/08/23 02:50:49;;;;;;;7.80;3.70;;;;;;;15.13;100.00;99702.70;109402;1251;69988;-74
2023/08/23 02:53:16;;;;;;;5.80;3.90;;;;;;;15.13;100.00;99718.06;109384;1251;71386;-73
2023/08/23 02:55:44;;;;;;;7.00;4.30;;;;;;;15.12;100.00;99731.55;109375;1250;59261;-73
2023/08/23 02:58:11;;;;;;;8.20;4.70;;;;;;;15.08;100.00;99745.90;109382;1251;60643;-74
2023/08/23 03:00:40;;;;;;;10.80;4.70;;;;;;;15.02;100.00;99748.29;109371;1251;74560;-73
2023/08/23 03:03:07;;;;;;;8.50;3.70;;;;;;;14.98;100.00;99737.04;109423;1251;70993;-74
2023/08/23 03:05:35;;;;;;;7.00;4.00;;;;;;;14.95;100.00;99731.13;109372;1251;70388;-73
2023/08/23 03:08:02;;;;;;;8.00;3.60;;;;;;;14.96;100.00;99735.85;109397;1252;60104;-74
2023/08/23 03:10:30;;;;;;;10.80;4.20;;;;;;;14.95;100.00;99747.02;109419;1251;58973;-73
2023/08/23 03:12:57;;;;;;;6.30;3.50;;;;;;;14.94;100.00;99756.46;109422;1251;73376;-73
2023/08/23 03:15:25;;;;;;;6.70;3.80;;;;;;;14.92;100.00;99755.69;109378;1251;71830;-73
2023/08/23 03:17:52;;;;;;;8.70;3.60;;;;;;;14.90;100.00;99760.75;109402;1251;71332;-73
2023/08/23 03:20:20;;;;;;;5.60;3.40;;;;;;;14.89;100.00;99757.04;109368;1252;59919;-73
2023/08/23 03:22:48;;;;;;;6.50;3.50;;;;;;;14.90;100.00;99749.77;109289;1251;58950;-74
2023/08/23 03:25:16;;;;;;;7.00;3.60;;;;;;;14.92;100.00;99741.54;109405;1251;73417;-73
2023/08/23 03:27:43;;;;;;;7.20;3.30;;;;;;;14.95;100.00;99742.96;109311;1251;69634;-74
2023/08/23 03:30:12;;;;;;;7.50;3.90;;;;;;;14.98;100.00;99746.20;109380;1251;73174;-74
2023/08/23 03:32:39;;;;;;;10.30;4.60;;;;;;;14.98;100.00;99748.45;109416;1251;59376;-73
2023/08/23 03:35:07;;;;;;;9.10;3.20;;;;;;;14.96;100.00;99752.81;109433;1251;60040;-73
2023/08/23 03:37:35;;;;;;;8.80;3.40;;;;;;;14.93;100.00;99757.42;109377;1251;73352;-74
2023/08/23 03:40:03;;;;;;;5.70;3.60;;;;;;;14.89;100.00;99756.71;109419;1251;69505;-74
2023/08/23 03:42:31;;;;;;;8.60;4.70;;;;;;;14.88;100.00;99751.63;109300;1251;71446;-74
2023/08/23 03:44:58;;;;;;;7.40;4.20;;;;;;;14.89;100.00;99745.77;109396;1251;60027;-74
2023/08/23 03:47:25;;;;;;;7.70;4.00;;;;;;;14.92;100.00;99742.09;109381;1251;59150;-73
2023/08/23 03:49:53;;;;;;;9.90;4.20;;;;;;;14.95;100.00;99741.56;109421;1251;73860;-73
2023/08/23 03:52:21;;;;;;;20.40;4.80;;;;;;;14.98;100.00;99741.08;109301;1251;70095;-73
2023/08/23 03:54:49;;;;;;;9.80;4.30;;;;;;;15.01;100.00;99748.84;109291;1251;72983;-74
2023/08/23 03:57:16;;;;;;;6.10;4.00;;;;;;;15.04;100.00;99753.99;109262;1251;58983;-73
2023/08/23 03:59:44;;;;;;;9.90;4.70;;;;;;;15.05;100.00;99759.08;109424;1251;59026;-74
2023/08/23 04:02:11;;;;;;;19.50;4.90;;;;;;;15.07;100.00;99759.89;109405;1251;74636;-75
2023/08/23 04:04:39;;;;;;;11.10;4.60;;;;;;;15.09;100.00;99759.07;109406;1251;71554;-73
2023/08/23 04:07:07;;;;;;;12.30;4.60;;;;;;;15.14;100.00;99757.75;109401;1251;71450;-74
2023/08/23 04:09:34;;;;;;;11.80;4.70;;;;;;;15.22;100.00;99759.84;109376;1252;60603;-73
2023/08/23 04:12:02;;;;;;;7.90;4.00;;;;;;;15.29;100.00;99763.05;109420;1251;60107;-74
2023/08/23 04:14:29;;;;;;;20.40;4.90;;;;;;;15.34;100.00;99759.27;109404;1251;74746;-74
2023/08/23 04:16:57;;;;;;;9.10;4.90;;;;;;;15.39;100.00;99749.45;109320;1251;69508;-73
2023/08/23 04:19:25;;;;;;;10.40;4.90;;;;;;;15.47;100.00;99741.27;109384;1252;72365;-73
2023/08/23 04:21:53;;;;;;;12.00;4.50;;;;;;;15.55;100.00;99738.19;109406;1251;60396;-74
2023/08/23 04:24:21;;;;;;;11.10;4.30;;;;;;;15.62;100.00;99726.69;109297;1251;59482;-74
2023/08/23 04:26:49;;;;;;;9.60;4.70;;;;;;;15.70;100.00;99723.64;109358;1251;75122;-74
2023/08/23 04:29:16;;;;;;;13.10;5.40;;;;;;;15.79;100.00;99728.15;109407;1251;70399;-74
2023/08/23 04:31:44;;;;;;;14.20;5.90;;;;;;;15.87;100.00;99731.98;109275;1251;72825;-75
2023/08/23 04:34:19;;;;;;;13.50;4.90;;;;;;;15.95;100.00;99732.24;109281;1251;59413;-74
2023/08/23 04:36:46;;;;;;;21.60;5.00;;;;;;;16.02;100.00;99734.89;109427;1251;59424;-73
2023/08/23 04:39:14;;;;;;;12.00;4.40;;;;;;;16.07;100.00;99736.75;109366;1251;74597;-73
2023/08/23 04:41:42;;;;;;;17.80;4.70;;;;;;;16.10;100.00;99736.25;109293;1251;71327;-73
2023/08/23 04:44:10;;;;;;;9.20;4.20;;;;;;;16.14;100.00;99729.63;109420;1251;72656;-73
2023/08/23 04:46:37;;;;;;;13.20;3.90;;;;;;;16.19;100.00;99741.73;109294;1251;59297;-74
2023/08/23 04:49:05;;;;;;;11.70;3.80;;;;;;;16.26;100.00;99742.26;109359;1251;59976;-74
2023/08/23 04:51:32;;;;;;;10.00;3.50;;;;;;;16.34;100.00;99736.18;109322;1251;74640;-73
2023/08/23 04:54:00;;;;;;;14.00;3.30;;;;;;;16.42;100.00;99727.79;109304;1251;69782;-73
2023/08/23 04:56:28;;;;;;;11.70;3.10;;;;;;;16.52;100.00;99720.33;109314;1251;72683;-73
2023/08/23 04:58:55;;;;;;;8.90;3.00;;;;;;;16.61;100.00;99724.43;109305;1251;60015;-73
2023/08/23 05:01:23;;;;;;;6.50;2.70;;;;;;;16.69;100.00;99724.83;109287;1251;58954;-74
2023/08/23 05:03:50;;;;;;;10.50;3.10;;;;;;;16.80;100.00;99731.68;109280;1251;73434;-75
2023/08/23 05:06:18;;;;;;;5.10;2.90;;;;;;;16.89;100.00;99733.64;109347;1251;70837;-74
2023/08/23 05:08:45;;;;;;;6.00;3.20;;;;;;;17.01;100.00;99737.25;109282;1251;72692;-73
2023/08/23 05:11:16;;;;;;;6.90;3.50;;;;;;;17.13;100.00;99727.36;109316;1251;60112;-73
2023/08/23 05:13:44;;;;;;;10.40;3.00;;;;;;;17.24;100.00;99720.83;109335;1251;60043;-73
2023/08/23 05:16:13;;;;;;;8.20;2.70;;;;;;;17.34;100.00;99722.01;109293;1251;74608;-74
2023/08/23 05:18:41;;;;;;;7.00;2.90;;;;;;;17.46;100.00;99724.33;109320;1251;70934;-74
2023/08/23 05:21:09;;;;;;;10.30;3.10;;;;;;;17.59;100.00;99723.91;109341;1251;72674;-74
2023/08/23 05:23:36;;;;;;;15.10;4.70;;;;;;;17.71;100.00;99721.75;109430;1251;59264;-73
2023/08/23 05:26:06;;;;;;;16.00;8.30;;;;;;;17.81;100.00;99724.13;109275;1251;59021;-73
2023/08/23 05:28:33;;;;;;;16.30;7.50;;;;;;;17.90;100.00;99723.67;109321;1251;75148;-74
2023/08/23 05:31:02;;;;;;;16.30;5.60;;;;;;;17.99;100.00;99722.92;109453;1251;71615;-74
2023/08/23 05:33:30;;;;;;;14.60;4.40;;;;;;;18.11;100.00;99721.28;109292;1251;72456;-74
2023/08/23 05:35:58;;;;;;;13.70;4.10;;;;;;;18.21;100.00;99722.07;109422;1251;59032;-74
2023/08/23 05:38:26;;;;;;;19.80;3.30;;;;;;;18.27;100.00;99721.90;109378;1251;58991;-73
2023/08/23 05:40:54;;;;;;;19.80;7.70;;;;;;;18.30;100.00;99718.31;109306;1251;73687;-73
2023/08/23 05:43:22;;;;;;;18.60;7.80;;;;;;;18.36;100.00;99714.23;109398;1251;69815;-74
2023/08/23 05:45:54;;;;;;;21.70;7.30;;;;;;;18.44;100.00;99711.41;109411;1251;72967;-74
2023/08/23 05:48:23;;;;;;;15.20;5.50;;;;;;;18.54;100.00;99707.19;109303;1251;60154;-73
2023/08/23 05:50:51;;;;;;;11.50;4.70;;;;;;;18.66;100.00;99704.48;109418;1251;59021;-74
2023/08/23 05:53:19;;;;;;;14.00;5.50;;;;;;;18.79;100.00;99707.35;109415;1251;74618;-73
2023/08/23 05:55:48;;;;;;;22.30;6.80;;;;;;;18.91;100.00;99700.89;109409;1251;71110;-73
2023/08/23 05:58:17;;;;;;;17.50;5.60;;;;;;;19.00;100.00;99692.83;108584;1251;1002769;-74
2023/08/23 06:00:45;;;;;;;14.70;4.20;;;;;;;19.07;100.00;99690.95;109477;1251;59097;-73
2023/08/23 06:03:16;;;;;;;20.60;8.00;;;;;;;19.15;100.00;99694.70;109382;1251;58990;-74
2023/08/23 06:05:44;;;;;;;19.90;3.50;;;;;;;19.22;100.00;99692.27;109450;1251;73409;-73
2023/08/23 06:08:11;;;;;;;12.50;3.60;;;;;;;19.29;100.00;99695.14;109438;1251;70767;-74
2023/08/23 06:10:39;;;;;;;12.00;3.50;;;;;;;19.38;100.00;99696.91;109409;1251;71401;-75
2023/08/23 06:13:06;;;;;;;10.60;3.50;;;;;;;19.45;100.00;99696.54;109383;1251;59336;-74
2023/08/23 06:15:34;;;;;;;10.70;3.10;;;;;;;19.53;100.00;99691.59;109462;1251;59070;-73
2023/08/23 06:18:01;;;;;;;12.40;2.60;;;;;;;19.60;100.00;99692.00;109452;1251;75179;-74
2023/08/23 06:20:29;;;;;;;10.00;2.50;;;;;;;19.67;100.00;99691.30;109408;1251;71540;-74
2023/08/23 06:23:00;;;;;;;18.80;2.30;;;;;;;19.75;100.00;99684.73;109407;1251;71770;-74
2023/08/23 06:25:27;;;;;;;9.40;2.40;;;;;;;19.83;100.00;99690.02;109286;1255;60031;-73
2023/08/23 06:27:54;;;;;;;10.60;2.30;;;;;;;19.87;100.00;99683.24;109454;1251;60061;-73
2023/08/23 06:30:22;;;;;;;7.40;2.20;;;;;;;19.88;100.00;99681.36;109441;1251;74593;-74
2023/08/23 06:32:50;;;;;;;10.70;2.50;;;;;;;19.94;100.00;99687.14;109433;1251;70801;-74
2023/08/23 06:35:18;;;;;;;12.20;2.20;;;;;;;20.07;100.00;99689.29;109457;1251;72949;-73
2023/08/23 06:37:46;;;;;;;13.50;2.70;;;;;;;20.24;100.00;99688.94;109421;1252;60080;-74
2023/08/23 06:40:16;;;;;;;21.10;4.20;;;;;;;20.40;100.00;99679.92;109450;1251;60143;-74
2023/08/23 06:42:44;;;;;;;10.60;2.20;;;;;;;20.54;100.00;99674.68;109422;1251;74640;-73
2023/08/23 06:45:11;;;;;;;9.60;5.00;;;;;;;20.68;100.00;99676.64;109384;1251;69766;-73
2023/08/23 06:47:39;;;;;;;13.00;3.30;;;;;;;20.84;100.00;99674.63;109415;1251;71711;-73
2023/08/23 06:50:06;;;;;;;5.50;2.20;;;;;;;20.96;100.00;99667.80;109326;1251;59523;-73
2023/08/23 06:52:39;;;;;;;5.30;1.70;;;;;;;21.07;100.00;99664.84;109439;1251;60550;-73
2023/08/23 06:55:07;;;;;;;9.00;2.20;;;;;;;21.15;100.00;99663.88;109447;1251;74721;-74
2023/08/23 06:57:35;;;;;;;4.70;1.90;;;;;;;21.20;100.00;99664.08;109468;1251;70384;-74
2023/08/23 07:00:02;;;;;;;6.50;1.80;;;;;;;21.24;100.00;99666.40;109392;1251;71382;-74
2023/08/23 07:02:30;;;;;;;6.80;1.80;;;;;;;21.33;100.00;99666.42;109402;1251;60059;-75
2023/08/23 07:04:57;;;;;;;5.00;1.50;;;;;;;21.41;100.00;99664.38;109443;1251;58941;-73
2023/08/23 07:07:25;;;;;;;6.70;1.70;;;;;;;21.52;100.00;99667.13;109410;1251;73344;-75
2023/08/23 07:09:52;;;;;;;5.60;1.30;;;;;;;21.59;100.00;99666.29;109462;1251;71099;-74
2023/08/23 07:12:20;;;;;;;7.00;1.40;;;;;;;21.66;100.00;99670.02;109411;1251;70931;-74
2023/08/23 07:14:49;;;;;;;4.20;1.20;;;;;;;21.66;100.00;99661.76;109452;1251;59030;-74
2023/08/23 07:17:17;;;;;;;4.30;1.90;;;;;;;21.71;100.00;99663.89;109439;1251;60011;-73
2023/08/23 07:19:47;;;;;;;3.60;1.30;;;;;;;21.81;100.00;99661.30;109413;1251;74709;-74
2023/08/23 07:22:15;;;;;;;10.00;1.70;;;;;;;21.94;100.00;99660.81;109461;1251;70741;-74
2023/08/23 07:24:42;;;;;;;4.20;1.50;;;;;;;22.03;100.00;99662.61;109412;1251;73204;-75
2023/08/23 07:27:10;;;;;;;5.40;1.70;;;;;;;22.11;100.00;99662.31;109414;1251;60091;-74
2023/08/23 07:29:37;;;;;;;5.10;1.80;;;;;;;22.12;100.00;99659.60;109409;1253;60022;-74
2023/08/23 07:32:05;;;;;;;1.80;1.20;;;;;;;22.11;100.00;99661.48;108635;1251;1003073;-73
2023/08/23 07:34:33;;;;;;;6.20;1.70;;;;;;;22.14;100.00;99657.80;109418;1251;69515;-74
2023/08/23 07:37:00;;;;;;;5.10;1.60;;;;;;;22.23;100.00;99656.67;109391;1252;72736;-73
2023/08/23 07:39:28;;;;;;;3.90;1.80;;;;;;;22.31;100.00;99655.03;109391;1252;59492;-74
2023/08/23 07:41:55;;;;;;;1.80;0.90;;;;;;;22.36;100.00;99657.34;109408;1251;59116;-74
2023/08/23 07:44:23;;;;;;;2.20;1.30;;;;;;;22.40;100.00;99658.38;109378;1253;73420;-74
2023/08/23 07:46:53;;;;;;;7.80;1.80;;;;;;;22.45;100.00;99661.23;109414;1251;70895;-73
2023/08/23 07:49:20;;;;;;;4.90;1.60;;;;;;;22.49;100.00;99660.72;109424;1251;73212;-74
2023/08/23 07:51:48;;;;;;;3.10;1.10;;;;;;;22.57;100.00;99653.65;109416;1251;60573;-74
2023/08/23 07:54:16;;;;;;;8.10;0.80;;;;;;;22.61;100.00;99653.45;109404;1251;59993;-74
2023/08/23 07:56:43;;;;;;;2.50;1.70;;;;;;;22.68;100.00;99655.11;109383;1251;74621;-74
2023/08/23 07:59:11;;;;;;;6.40;1.60;;;;;;;22.77;100.00;99657.90;109428;1251;71178;-74
2023/08/23 08:01:38;;;;;;;3.00;1.20;;;;;;;22.81;100.00;99655.73;109423;1251;71398;-74
2023/08/23 08:04:06;;;;;;;3.70;1.30;;;;;;;22.85;100.00;99656.70;109447;1251;59352;-74
2023/08/23 08:06:34;;;;;;;2.70;1.20;;;;;;;22.91;100.00;99654.92;109428;1251;60452;-74
2023/08/23 08:09:01;;;;;;;5.30;1.40;;;;;;;23.00;100.00;99651.68;109430;1251;73423;-75
2023/08/23 08:11:29;;;;;;;3.20;1.10;;;;;;;23.00;100.00;99649.48;109413;1251;71210;-75
2023/08/23 08:13:56;;;;;;;2.70;1.30;;;;;;;23.07;100.00;99652.59;109404;1251;72213;-74
2023/08/23 08:16:23;;;;;;;6.20;1.40;;;;;;;23.13;100.00;99648.64;109443;1251;60040;-74
2023/08/23 08:18:51;;;;;;;6.80;1.30;;;;;;;23.23;100.00;99646.39;109456;1251;60086;-75
2023/08/23 08:21:19;;;;;;;5.70;1.20;;;;;;;23.42;100.00;99647.23;109449;1251;73015;-74
2023/08/23 08:23:47;;;;;;;3.70;1.90;;;;;;;23.55;100.00;99645.94;109475;1251;69439;-74
2023/08/23 08:26:16;;;;;;;2.70;1.30;;;;;;;23.64;100.00;99645.47;109426;1251;72649;-75
2023/08/23 08:28:44;;;;;;;3.60;1.50;;;;;;;23.73;100.00;99644.21;109423;1252;59251;-74
2023/08/23 08:31:11;;;;;;;4.00;1.20;;;;;;;23.88;100.00;99648.70;109429;1251;59063;-73
2023/08/23 08:33:39;;;;;;;2.20;1.20;;;;;;;23.96;100.00;99650.29;109453;1251;73264;-74
2023/08/23 08:36:07;;;;;;;6.30;1.20;;;;;;;24.04;100.00;99648.65;109418;1251;72047;-73
2023/08/23 08:38:38;;;;;;;3.70;1.40;;;;;;;24.21;100.00;99650.23;109429;1251;71084;-75
2023/08/23 08:41:06;;;;;;;4.90;1.20;;;;;;;24.23;100.00;99640.52;109404;1251;59393;-74
2023/08/23 08:43:35;;;;;;;3.20;1.10;;;;;;;24.10;100.00;99642.05;109411;1251;59359;-74
2023/08/23 08:46:05;;;;;;;3.70;1.10;;;;;;;23.91;100.00;99639.40;109375;1251;74700;-74
2023/08/23 08:48:33;;;;;;;4.50;1.10;;;;;;;23.79;100.00;99642.44;109406;1251;69862;-73
2023/08/23 08:51:02;;;;;;;2.40;1.00;;;;;;;23.77;100.00;99644.95;109391;1253;72453;-74
2023/08/23 08:53:30;;;;;;;7.40;1.10;;;;;;;23.82;100.00;99644.14;109425;1253;59982;-74
2023/08/23 08:55:58;;;;;;;7.30;1.10;;;;;;;23.86;100.00;99641.10;109437;1251;60034;-74
2023/08/23 08:58:26;;;;;;;4.70;0.90;;;;;;;23.80;100.00;99640.34;109343;1251;75083;-74
2023/08/23 09:00:53;;;;;;;8.10;1.20;;;;;;;23.80;100.00;99644.67;109387;1251;71689;-74
2023/08/23 09:03:21;;;;;;;3.50;1.00;;;;;;;23.81;100.00;99643.35;109390;1252;71786;-74
2023/08/23 09:05:48;;;;;;;2.30;1.10;;;;;;;23.75;100.00;99638.12;109398;1251;60082;-74
2023/08/23 09:08:16;;;;;;;2.20;1.10;;;;;;;23.63;100.00;99634.70;109417;1252;59310;-74
2023/08/23 09:10:44;;;;;;;1.60;1.00;;;;;;;23.61;100.00;99629.85;109419;1251;73384;-74
2023/08/23 09:13:11;;;;;;;2.70;1.30;;;;;;;23.69;100.00;99634.16;109473;1251;71394;-74
2023/08/23 09:15:38;;;;;;;1.90;1.10;;;;;;;23.71;100.00;99630.02;109395;1253;72495;-74
2023/08/23 09:18:06;;;;;;;2.80;1.10;;;;;;;23.75;100.00;99634.35;109385;1252;60110;-74
2023/08/23 09:20:35;;;;;;;4.70;1.10;;;;;;;23.78;100.00;99641.23;109479;1251;60012;-74
2023/08/23 09:23:02;;;;;;;8.70;1.60;;;;;;;23.81;100.00;99639.24;109412;1251;73361;-75
2023/08/23 09:25:30;;;;;;;5.60;1.10;;;;;;;23.89;100.00;99629.74;109410;1251;70936;-74
2023/08/23 09:27:58;;;;;;;4.30;1.10;;;;;;;24.09;100.00;99631.70;109386;1251;73107;-74
2023/08/23 09:30:26;;;;;;;3.80;1.10;;;;;;;24.26;100.00;99633.67;109408;1251;59067;-74
2023/08/23 09:32:53;;;;;;;7.10;1.10;;;;;;;24.32;100.00;99637.42;109439;1251;59088;-74
2023/08/23 09:35:21;;;;;;;7.30;1.10;;;;;;;24.34;100.00;99633.13;109390;1251;75373;-74
2023/08/23 09:37:48;;;;;;;3.70;1.20;;;;;;;24.42;100.00;99628.27;109437;1251;71266;-74
2023/08/23 09:40:21;;;;;;;4.30;1.20;;;;;;;24.56;100.00;99622.92;109436;1251;72039;-74
2023/08/23 09:42:49;;;;;;;1.80;1.10;;;;;;;24.76;100.00;99616.41;109390;1252;60110;-75
2023/08/23 09:45:23;;;;;;;3.00;1.10;;;;;;;24.89;100.00;99617.39;109443;1251;60026;-74
2023/08/23 09:47:56;;;;;;;5.10;1.20;;;;;;;25.04;100.00;99624.01;109441;1251;65775;-75
2023/08/23 09:50:24;;;;;;;6.90;1.30;;;;;;;25.18;100.00;99630.05;109441;1251;72200;-74
2023/08/23 09:52:57;;;;;;;4.80;1.40;;;;;;;25.17;100.00;99631.64;109395;1253;72493;-74
2023/08/23 09:55:25;;;;;;;2.30;1.00;;;;;;;25.09;100.00;99626.46;109393;1251;59092;-74
2023/08/23 09:57:53;;;;;;;2.70;1.10;;;;;;;25.05;100.00;99622.33;109430;1250;60034;-74
2023/08/23 10:00:21;;;;;;;4.90;1.00;;;;;;;25.13;100.00;99629.66;109435;1251;72788;-74
2023/08/23 10:02:49;;;;;;;1.00;0.70;;;;;;;25.16;93.65;99626.51;109446;1251;70918;-74
2023/08/23 10:05:17;;;;;;;3.70;0.80;;;;;;;25.03;90.75;99619.80;109441;1251;72487;-74
2023/08/23 10:07:44;;;;;;;4.30;1.00;;;;;;;24.90;90.82;99617.30;109465;1253;60089;-74
2023/08/23 10:10:12;;;;;;;3.20;0.90;;;;;;;24.78;99.03;99616.01;109423;1251;60630;-75
2023/08/23 10:12:43;;;;;;;2.20;1.00;;;;;;;24.72;100.00;99611.92;109424;1251;65766;-75
2023/08/23 10:15:12;;;;;;;8.30;1.00;;;;;;;24.76;100.00;99615.97;109377;1251;71161;-75
2023/08/23 10:17:39;;;;;;;3.30;1.30;;;;;;;24.84;100.00;99607.59;109417;1251;71411;-75
2023/08/23 10:20:07;;;;;;;4.00;0.70;;;;;;;24.95;94.96;99609.11;109373;1251;60624;-74
2023/08/23 10:22:35;;;;;;;3.30;1.00;;;;;;;25.00;91.35;99608.43;109425;1251;59011;-74
2023/08/23 10:25:16;;;;;;;5.90;1.10;;;;;;;24.97;87.82;99603.36;109446;1251;74685;-75
2023/08/23 10:27:45;;;;;;;1.80;1.10;;;;;;;25.00;98.02;99606.47;109436;1251;61808;-74
2023/08/23 10:30:24;;;;;;;3.40;0.90;;;;;;;25.16;96.28;99599.17;109431;1251;72808;-74
2023/08/23 10:33:02;;;;;;;2.80;0.60;;;;;;;25.29;97.13;99595.50;109455;1253;60065;-75
2023/08/23 10:35:33;;;;;;;6.80;1.10;;;;;;;25.43;94.34;99594.76;109362;1251;59041;-74
2023/08/23 10:38:02;;;;;;;3.80;1.00;;;;;;;25.49;86.75;99592.13;109487;1251;65934;-74
2023/08/23 10:40:30;;;;;;;5.10;1.10;;;;;;;25.50;88.39;99593.11;109410;1251;71349;-75
2023/08/23 10:42:57;;;;;;;5.10;0.80;;;;;;;25.50;83.90;99588.64;109470;1251;71204;-74
2023/08/23 10:45:26;;;;;;;3.40;0.90;;;;;;;25.49;87.11;99589.09;109445;1253;59117;-75
2023/08/23 10:47:53;;;;;;;1.80;0.80;;;;;;;25.49;81.72;99582.60;108616;1251;1002478;-74
2023/08/23 10:50:21;;;;;;;4.30;0.80;;;;;;;25.52;83.59;99586.48;109439;1251;74658;-74
2023/08/23 10:52:51;;;;;;;4.70;0.90;;;;;;;25.61;86.45;99582.27;109394;1251;69777;-74
2023/08/23 10:55:19;;;;;;;2.90;1.10;;;;;;;25.69;86.33;99576.05;109434;1253;71447;-75
2023/08/23 10:57:46;;;;;;;2.50;1.00;;;;;;;25.76;88.48;99578.65;109417;1251;60074;-74
2023/08/23 11:00:15;;;;;;;2.90;1.00;;;;;;;25.84;88.92;99572.09;109459;1253;60006;-75
2023/08/23 11:02:42;;;;;;;1.10;0.70;;;;;;;26.02;84.31;99566.22;109435;1251;73769;-75
2023/08/23 11:05:10;;;;;;;2.70;0.70;;;;;;;26.12;71.71;99561.79;109397;1251;69478;-75
2023/08/23 11:07:37;;;;;;;3.80;1.00;;;;;;;26.22;79.18;99560.50;109428;1253;71398;-74
2023/08/23 11:10:08;;;;;;;1.60;0.90;;;;;;;26.33;71.36;99561.50;109425;1253;58968;-75
2023/08/23 11:12:36;;;;;;;2.40;0.90;;;;;;;26.33;69.18;99559.41;109412;1251;59292;-75
2023/08/23 11:15:04;;;;;;;2.30;0.90;;;;;;;26.20;69.49;99563.77;109376;1251;74643;-74
2023/08/23 11:17:31;;;;;;;3.70;1.00;;;;;;;25.93;68.45;99565.46;109443;1251;71273;-75
2023/08/23 11:20:00;;;;;;;5.20;1.00;;;;;;;25.70;74.29;99571.08;109376;1252;72751;-74
2023/08/23 11:22:27;;;;;;;5.30;0.80;;;;;;;25.60;79.42;99569.88;109446;1253;59252;-74